createdAt,value
2024-02-05T00:14:00.772Z,91
2024-02-05T00:34:01.223Z,91
2024-02-05T01:14:01.939Z,91
2024-02-05T01:54:02.728Z,91
2024-02-05T02:54:04.040Z,90
2024-02-05T03:14:04.391Z,89
2024-02-05T03:44:05.000Z,88
2024-02-05T04:04:05.406Z,87
2024-02-05T04:24:05.727Z,87
2024-02-05T04:44:06.115Z,87
2024-02-05T05:44:07.321Z,85
2024-02-05T06:04:08.068Z,85
2024-02-05T07:44:09.721Z,83
2024-02-05T08:04:10.171Z,83
2024-02-05T08:24:10.552Z,83
2024-02-05T08:44:10.874Z,82
2024-02-05T09:04:11.330Z,82
2024-02-05T09:24:11.759Z,82
2024-02-05T09:44:12.085Z,81
2024-02-05T10:04:12.529Z,80
2024-02-05T10:24:12.866Z,80
2024-02-05T10:44:16.568Z,80
2024-02-05T11:04:13.777Z,79
2024-02-05T11:24:14.067Z,79
2024-02-05T11:44:14.464Z,78
2024-02-05T12:04:14.872Z,77
2024-02-05T12:24:15.231Z,77
2024-02-05T12:44:19.627Z,76
2024-02-05T13:04:16.081Z,76
2024-02-05T13:24:16.472Z,76
2024-02-05T13:44:16.827Z,76
2024-02-05T14:04:17.252Z,75
2024-02-05T14:24:17.617Z,76
2024-02-05T14:44:18.025Z,75
2024-02-05T14:54:18.223Z,75
2024-02-05T15:04:18.493Z,76
2024-02-05T15:14:18.591Z,76
2024-02-05T15:34:19.078Z,76
2024-02-05T15:44:20.201Z,76
2024-02-05T15:54:19.390Z,76
2024-02-05T16:04:19.840Z,77
2024-02-05T16:14:19.781Z,77
2024-02-05T16:24:20.004Z,77
2024-02-05T16:34:20.296Z,78
2024-02-05T16:44:20.399Z,78
2024-02-05T16:54:20.682Z,78
2024-02-05T17:04:20.876Z,78
2024-02-05T17:14:21.016Z,78
2024-02-05T17:24:21.200Z,78
2024-02-05T17:34:21.527Z,78
2024-02-05T17:44:21.593Z,78
2024-02-05T17:54:21.827Z,78
2024-02-05T18:04:22.115Z,78
2024-02-05T18:14:22.202Z,78
2024-02-05T18:24:27.028Z,78
2024-02-05T18:34:22.652Z,78
2024-02-05T18:44:22.838Z,78
2024-02-05T18:54:23.019Z,78
2024-02-05T19:04:23.235Z,78
2024-02-05T19:14:23.456Z,78
2024-02-05T19:24:23.658Z,78
2024-02-05T19:34:23.825Z,77
2024-02-05T19:44:23.970Z,78
2024-02-05T19:54:24.181Z,78
2024-02-05T20:04:24.429Z,78
2024-02-05T20:14:24.609Z,79
2024-02-05T20:24:24.772Z,80
2024-02-05T20:34:27.092Z,81
2024-02-05T20:44:25.227Z,81
2024-02-05T20:54:25.358Z,82
2024-02-05T21:14:25.803Z,82
2024-02-05T23:24:28.407Z,86
